sensor_id;sensor_type;location;lat;lon;timestamp;temperature;humidity
46488;DHT22;32202;48.780;9.204;2022-07-05T00:01:59;19.80;72.40
46488;DHT22;32202;48.780;9.204;2022-07-05T00:04:25;19.80;72.70
46488;DHT22;32202;48.780;9.204;2022-07-05T00:06:51;19.80;73.50
46488;DHT22;32202;48.780;9.204;2022-07-05T00:09:35;19.70;74.20
46488;DHT22;32202;48.780;9.204;2022-07-05T00:12:01;19.70;74.90
46488;DHT22;32202;48.780;9.204;2022-07-05T00:14:27;19.60;74.20
46488;DHT22;32202;48.780;9.204;2022-07-05T00:16:52;19.60;73.90
46488;DHT22;32202;48.780;9.204;2022-07-05T00:19:18;19.50;74.00
46488;DHT22;32202;48.780;9.204;2022-07-05T00:21:44;19.50;74.30
46488;DHT22;32202;48.780;9.204;2022-07-05T00:24:09;19.50;74.70
46488;DHT22;32202;48.780;9.204;2022-07-05T00:26:35;19.40;75.20
46488;DHT22;32202;48.780;9.204;2022-07-05T00:29:00;19.40;75.60
46488;DHT22;32202;48.780;9.204;2022-07-05T00:31:26;19.40;75.80
46488;DHT22;32202;48.780;9.204;2022-07-05T00:33:51;19.30;75.70
46488;DHT22;32202;48.780;9.204;2022-07-05T00:36:17;19.30;76.10
46488;DHT22;32202;48.780;9.204;2022-07-05T00:38:43;19.30;76.10
46488;DHT22;32202;48.780;9.204;2022-07-05T00:41:08;19.30;76.20
46488;DHT22;32202;48.780;9.204;2022-07-05T00:43:34;19.20;76.20
46488;DHT22;32202;48.780;9.204;2022-07-05T00:45:59;19.10;76.40
46488;DHT22;32202;48.780;9.204;2022-07-05T00:48:25;19.00;76.50
46488;DHT22;32202;48.780;9.204;2022-07-05T00:50:51;19.00;76.90
46488;DHT22;32202;48.780;9.204;2022-07-05T00:53:17;19.00;77.00
46488;DHT22;32202;48.780;9.204;2022-07-05T00:55:45;19.00;77.20
46488;DHT22;32202;48.780;9.204;2022-07-05T00:58:12;18.90;77.50
46488;DHT22;32202;48.780;9.204;2022-07-05T01:00:38;18.90;77.80
46488;DHT22;32202;48.780;9.204;2022-07-05T01:03:04;18.90;78.30
46488;DHT22;32202;48.780;9.204;2022-07-05T01:05:31;18.80;79.10
46488;DHT22;32202;48.780;9.204;2022-07-05T01:07:59;18.80;79.80
46488;DHT22;32202;48.780;9.204;2022-07-05T01:10:26;18.70;80.10
46488;DHT22;32202;48.780;9.204;2022-07-05T01:12:52;18.70;80.50
46488;DHT22;32202;48.780;9.204;2022-07-05T01:15:20;18.70;80.70
46488;DHT22;32202;48.780;9.204;2022-07-05T01:17:47;18.70;81.20
46488;DHT22;32202;48.780;9.204;2022-07-05T01:20:13;18.60;81.60
46488;DHT22;32202;48.780;9.204;2022-07-05T01:22:56;18.60;81.70
46488;DHT22;32202;48.780;9.204;2022-07-05T01:25:24;18.60;81.90
46488;DHT22;32202;48.780;9.204;2022-07-05T01:27:50;18.50;82.00
46488;DHT22;32202;48.780;9.204;2022-07-05T01:30:17;18.50;82.50
46488;DHT22;32202;48.780;9.204;2022-07-05T01:32:44;18.50;82.80
46488;DHT22;32202;48.780;9.204;2022-07-05T01:35:11;18.40;83.00
46488;DHT22;32202;48.780;9.204;2022-07-05T01:37:37;18.40;83.10
46488;DHT22;32202;48.780;9.204;2022-07-05T01:40:03;18.40;83.20
46488;DHT22;32202;48.780;9.204;2022-07-05T01:42:29;18.40;83.30
46488;DHT22;32202;48.780;9.204;2022-07-05T01:44:55;18.30;83.60
46488;DHT22;32202;48.780;9.204;2022-07-05T01:47:21;18.30;84.00
46488;DHT22;32202;48.780;9.204;2022-07-05T01:49:48;18.30;84.50
46488;DHT22;32202;48.780;9.204;2022-07-05T01:52:16;18.30;84.50
46488;DHT22;32202;48.780;9.204;2022-07-05T01:54:42;18.20;85.00
46488;DHT22;32202;48.780;9.204;2022-07-05T01:57:09;18.20;85.20
46488;DHT22;32202;48.780;9.204;2022-07-05T01:59:36;18.20;85.90
46488;DHT22;32202;48.780;9.204;2022-07-05T02:02:03;18.20;86.20
46488;DHT22;32202;48.780;9.204;2022-07-05T02:04:29;18.10;86.70
46488;DHT22;32202;48.780;9.204;2022-07-05T02:06:56;18.10;87.10
46488;DHT22;32202;48.780;9.204;2022-07-05T02:09:21;18.00;87.40
46488;DHT22;32202;48.780;9.204;2022-07-05T02:11:47;18.10;87.80
46488;DHT22;32202;48.780;9.204;2022-07-05T02:14:13;18.00;88.10
46488;DHT22;32202;48.780;9.204;2022-07-05T02:16:39;18.00;88.80
46488;DHT22;32202;48.780;9.204;2022-07-05T02:19:04;18.00;89.30
46488;DHT22;32202;48.780;9.204;2022-07-05T02:21:30;17.90;89.70
46488;DHT22;32202;48.780;9.204;2022-07-05T02:23:55;18.00;90.20
46488;DHT22;32202;48.780;9.204;2022-07-05T02:26:21;17.90;90.50
46488;DHT22;32202;48.780;9.204;2022-07-05T02:28:47;17.90;90.70
46488;DHT22;32202;48.780;9.204;2022-07-05T02:31:13;17.80;90.90
46488;DHT22;32202;48.780;9.204;2022-07-05T02:33:39;17.80;91.10
46488;DHT22;32202;48.780;9.204;2022-07-05T02:36:09;17.80;91.30
46488;DHT22;32202;48.780;9.204;2022-07-05T02:38:36;17.70;91.50
46488;DHT22;32202;48.780;9.204;2022-07-05T02:41:05;17.70;91.70
46488;DHT22;32202;48.780;9.204;2022-07-05T02:43:31;17.70;91.50
46488;DHT22;32202;48.780;9.204;2022-07-05T02:45:57;17.60;91.10
46488;DHT22;32202;48.780;9.204;2022-07-05T02:48:22;17.60;91.10
46488;DHT22;32202;48.780;9.204;2022-07-05T02:50:48;17.50;91.40
46488;DHT22;32202;48.780;9.204;2022-07-05T02:53:14;17.40;91.80
46488;DHT22;32202;48.780;9.204;2022-07-05T02:55:39;17.30;92.50
46488;DHT22;32202;48.780;9.204;2022-07-05T02:58:05;17.30;92.80
46488;DHT22;32202;48.780;9.204;2022-07-05T03:00:31;17.30;93.00
46488;DHT22;32202;48.780;9.204;2022-07-05T03:02:57;17.30;93.10
46488;DHT22;32202;48.780;9.204;2022-07-05T03:05:22;17.30;93.30
46488;DHT22;32202;48.780;9.204;2022-07-05T03:07:48;17.20;93.60
46488;DHT22;32202;48.780;9.204;2022-07-05T03:10:13;17.20;93.80
46488;DHT22;32202;48.780;9.204;2022-07-05T03:12:39;17.20;94.20
46488;DHT22;32202;48.780;9.204;2022-07-05T03:15:05;17.20;94.60
46488;DHT22;32202;48.780;9.204;2022-07-05T03:17:31;17.20;94.80
46488;DHT22;32202;48.780;9.204;2022-07-05T03:19:56;17.20;94.90
46488;DHT22;32202;48.780;9.204;2022-07-05T03:22:22;17.20;95.10
46488;DHT22;32202;48.780;9.204;2022-07-05T03:24:48;17.20;95.30
46488;DHT22;32202;48.780;9.204;2022-07-05T03:27:13;17.20;95.30
46488;DHT22;32202;48.780;9.204;2022-07-05T03:29:39;17.20;95.40
46488;DHT22;32202;48.780;9.204;2022-07-05T03:32:05;17.20;95.40
46488;DHT22;32202;48.780;9.204;2022-07-05T03:34:30;17.20;95.30
46488;DHT22;32202;48.780;9.204;2022-07-05T03:36:56;17.20;95.30
46488;DHT22;32202;48.780;9.204;2022-07-05T03:39:22;17.20;95.40
46488;DHT22;32202;48.780;9.204;2022-07-05T03:41:47;17.20;95.20
46488;DHT22;32202;48.780;9.204;2022-07-05T03:44:13;17.20;95.20
46488;DHT22;32202;48.780;9.204;2022-07-05T03:46:38;17.20;95.00
46488;DHT22;32202;48.780;9.204;2022-07-05T03:49:04;17.10;94.70
46488;DHT22;32202;48.780;9.204;2022-07-05T03:51:30;17.10;94.70
46488;DHT22;32202;48.780;9.204;2022-07-05T03:53:55;17.20;95.10
46488;DHT22;32202;48.780;9.204;2022-07-05T03:56:21;17.20;95.00
46488;DHT22;32202;48.780;9.204;2022-07-05T03:58:49;17.30;94.70
46488;DHT22;32202;48.780;9.204;2022-07-05T04:01:15;17.30;94.20
46488;DHT22;32202;48.780;9.204;2022-07-05T04:03:41;17.30;93.90
46488;DHT22;32202;48.780;9.204;2022-07-05T04:06:08;17.40;93.80
46488;DHT22;32202;48.780;9.204;2022-07-05T04:08:34;17.50;93.60
46488;DHT22;32202;48.780;9.204;2022-07-05T04:11:00;17.50;93.20
46488;DHT22;32202;48.780;9.204;2022-07-05T04:13:26;17.50;92.90
46488;DHT22;32202;48.780;9.204;2022-07-05T04:15:51;17.50;92.70
46488;DHT22;32202;48.780;9.204;2022-07-05T04:18:18;17.60;92.20
46488;DHT22;32202;48.780;9.204;2022-07-05T04:20:44;17.70;92.00
46488;DHT22;32202;48.780;9.204;2022-07-05T04:23:09;17.70;92.00
46488;DHT22;32202;48.780;9.204;2022-07-05T04:25:35;17.80;92.70
46488;DHT22;32202;48.780;9.204;2022-07-05T04:28:01;17.90;93.10
46488;DHT22;32202;48.780;9.204;2022-07-05T04:30:27;17.90;93.40
46488;DHT22;32202;48.780;9.204;2022-07-05T04:32:53;17.90;93.50
46488;DHT22;32202;48.780;9.204;2022-07-05T04:35:18;18.00;93.50
46488;DHT22;32202;48.780;9.204;2022-07-05T04:37:44;18.10;93.30
46488;DHT22;32202;48.780;9.204;2022-07-05T04:40:11;18.10;92.80
46488;DHT22;32202;48.780;9.204;2022-07-05T04:42:37;18.20;92.50
46488;DHT22;32202;48.780;9.204;2022-07-05T04:45:04;18.20;92.30
46488;DHT22;32202;48.780;9.204;2022-07-05T04:47:30;18.30;91.40
46488;DHT22;32202;48.780;9.204;2022-07-05T04:49:56;18.30;90.30
46488;DHT22;32202;48.780;9.204;2022-07-05T04:52:23;18.40;89.10
46488;DHT22;32202;48.780;9.204;2022-07-05T04:54:49;18.40;86.70
46488;DHT22;32202;48.780;9.204;2022-07-05T04:57:15;18.50;85.00
46488;DHT22;32202;48.780;9.204;2022-07-05T04:59:41;18.50;83.00
46488;DHT22;32202;48.780;9.204;2022-07-05T05:02:06;18.60;81.50
46488;DHT22;32202;48.780;9.204;2022-07-05T05:04:32;18.70;81.20
46488;DHT22;32202;48.780;9.204;2022-07-05T05:06:58;18.80;81.50
46488;DHT22;32202;48.780;9.204;2022-07-05T05:09:24;18.80;82.00
46488;DHT22;32202;48.780;9.204;2022-07-05T05:11:50;18.90;81.30
46488;DHT22;32202;48.780;9.204;2022-07-05T05:14:15;18.90;80.20
46488;DHT22;32202;48.780;9.204;2022-07-05T05:16:41;18.90;78.80
46488;DHT22;32202;48.780;9.204;2022-07-05T05:19:07;19.00;78.40
46488;DHT22;32202;48.780;9.204;2022-07-05T05:21:32;19.00;77.20
46488;DHT22;32202;48.780;9.204;2022-07-05T05:23:58;19.10;76.40
46488;DHT22;32202;48.780;9.204;2022-07-05T05:26:24;19.10;75.80
46488;DHT22;32202;48.780;9.204;2022-07-05T05:28:49;19.20;74.70
46488;DHT22;32202;48.780;9.204;2022-07-05T05:31:15;19.20;74.70
46488;DHT22;32202;48.780;9.204;2022-07-05T05:33:41;19.30;74.70
46488;DHT22;32202;48.780;9.204;2022-07-05T05:36:07;19.40;73.60
46488;DHT22;32202;48.780;9.204;2022-07-05T05:38:32;19.40;73.80
46488;DHT22;32202;48.780;9.204;2022-07-05T05:40:58;19.50;73.30
46488;DHT22;32202;48.780;9.204;2022-07-05T05:43:24;19.60;72.50
46488;DHT22;32202;48.780;9.204;2022-07-05T05:45:49;19.60;71.20
46488;DHT22;32202;48.780;9.204;2022-07-05T05:48:18;19.70;70.50
46488;DHT22;32202;48.780;9.204;2022-07-05T05:50:45;19.80;70.30
46488;DHT22;32202;48.780;9.204;2022-07-05T05:53:13;19.80;69.50
46488;DHT22;32202;48.780;9.204;2022-07-05T05:55:38;19.90;66.50
46488;DHT22;32202;48.780;9.204;2022-07-05T06:00:40;20.10;66.10
46488;DHT22;32202;48.780;9.204;2022-07-05T06:03:06;20.20;65.80
46488;DHT22;32202;48.780;9.204;2022-07-05T06:05:31;20.20;64.50
46488;DHT22;32202;48.780;9.204;2022-07-05T06:07:57;20.20;64.00
46488;DHT22;32202;48.780;9.204;2022-07-05T06:10:29;20.40;63.00
46488;DHT22;32202;48.780;9.204;2022-07-05T06:12:57;20.40;62.00
46488;DHT22;32202;48.780;9.204;2022-07-05T06:15:23;20.50;62.30
46488;DHT22;32202;48.780;9.204;2022-07-05T06:17:49;20.60;62.60
46488;DHT22;32202;48.780;9.204;2022-07-05T06:20:22;20.70;62.40
46488;DHT22;32202;48.780;9.204;2022-07-05T06:22:50;20.90;61.60
46488;DHT22;32202;48.780;9.204;2022-07-05T06:25:16;21.30;61.30
46488;DHT22;32202;48.780;9.204;2022-07-05T06:27:43;21.90;60.10
46488;DHT22;32202;48.780;9.204;2022-07-05T06:30:10;22.90;57.70
46488;DHT22;32202;48.780;9.204;2022-07-05T06:32:36;24.20;55.30
46488;DHT22;32202;48.780;9.204;2022-07-05T06:35:02;25.70;51.80
46488;DHT22;32202;48.780;9.204;2022-07-05T06:37:43;27.50;48.30
46488;DHT22;32202;48.780;9.204;2022-07-05T06:40:10;29.30;44.50
46488;DHT22;32202;48.780;9.204;2022-07-05T06:42:36;30.90;42.20
46488;DHT22;32202;48.780;9.204;2022-07-05T06:45:02;32.20;40.50
46488;DHT22;32202;48.780;9.204;2022-07-05T06:47:27;33.40;38.70
46488;DHT22;32202;48.780;9.204;2022-07-05T06:49:53;34.40;37.70
46488;DHT22;32202;48.780;9.204;2022-07-05T06:52:18;35.30;36.60
46488;DHT22;32202;48.780;9.204;2022-07-05T06:54:45;36.30;35.70
46488;DHT22;32202;48.780;9.204;2022-07-05T06:57:11;37.20;34.40
46488;DHT22;32202;48.780;9.204;2022-07-05T06:59:36;37.80;33.60
46488;DHT22;32202;48.780;9.204;2022-07-05T07:02:02;38.30;33.00
46488;DHT22;32202;48.780;9.204;2022-07-05T07:04:28;38.60;32.30
46488;DHT22;32202;48.780;9.204;2022-07-05T07:06:54;38.90;32.00
46488;DHT22;32202;48.780;9.204;2022-07-05T07:09:19;39.40;31.60
46488;DHT22;32202;48.780;9.204;2022-07-05T07:11:47;39.70;31.20
46488;DHT22;32202;48.780;9.204;2022-07-05T07:14:14;40.10;31.00
46488;DHT22;32202;48.780;9.204;2022-07-05T07:16:40;40.20;30.70
46488;DHT22;32202;48.780;9.204;2022-07-05T07:19:06;40.30;30.40
46488;DHT22;32202;48.780;9.204;2022-07-05T07:21:31;40.40;30.60
46488;DHT22;32202;48.780;9.204;2022-07-05T07:23:57;40.40;30.70
46488;DHT22;32202;48.780;9.204;2022-07-05T07:26:23;40.40;30.70
46488;DHT22;32202;48.780;9.204;2022-07-05T07:28:48;40.60;30.60
46488;DHT22;32202;48.780;9.204;2022-07-05T07:31:14;40.90;30.70
46488;DHT22;32202;48.780;9.204;2022-07-05T07:33:39;41.10;30.60
46488;DHT22;32202;48.780;9.204;2022-07-05T07:36:05;41.30;30.40
46488;DHT22;32202;48.780;9.204;2022-07-05T07:38:31;42.00;30.00
46488;DHT22;32202;48.780;9.204;2022-07-05T07:40:56;42.60;30.00
46488;DHT22;32202;48.780;9.204;2022-07-05T07:43:22;42.90;29.90
46488;DHT22;32202;48.780;9.204;2022-07-05T07:45:48;43.10;29.80
46488;DHT22;32202;48.780;9.204;2022-07-05T07:48:14;43.10;29.60
46488;DHT22;32202;48.780;9.204;2022-07-05T07:50:39;43.50;29.60
46488;DHT22;32202;48.780;9.204;2022-07-05T07:53:05;43.60;29.50
46488;DHT22;32202;48.780;9.204;2022-07-05T07:55:31;43.90;29.50
46488;DHT22;32202;48.780;9.204;2022-07-05T07:57:56;44.40;29.30
46488;DHT22;32202;48.780;9.204;2022-07-05T08:00:22;44.90;29.10
46488;DHT22;32202;48.780;9.204;2022-07-05T08:02:48;45.40;29.00
46488;DHT22;32202;48.780;9.204;2022-07-05T08:05:13;46.00;28.60
46488;DHT22;32202;48.780;9.204;2022-07-05T08:07:39;45.70;28.50
46488;DHT22;32202;48.780;9.204;2022-07-05T08:10:05;44.70;28.40
46488;DHT22;32202;48.780;9.204;2022-07-05T08:12:31;43.70;28.90
46488;DHT22;32202;48.780;9.204;2022-07-05T08:14:58;44.30;29.00
46488;DHT22;32202;48.780;9.204;2022-07-05T08:17:23;45.30;28.90
46488;DHT22;32202;48.780;9.204;2022-07-05T08:19:49;46.10;28.60
46488;DHT22;32202;48.780;9.204;2022-07-05T08:22:33;46.50;28.40
46488;DHT22;32202;48.780;9.204;2022-07-05T08:24:59;46.60;28.30
46488;DHT22;32202;48.780;9.204;2022-07-05T08:27:25;46.40;28.40
46488;DHT22;32202;48.780;9.204;2022-07-05T08:29:51;47.10;28.40
46488;DHT22;32202;48.780;9.204;2022-07-05T08:32:17;47.70;28.20
46488;DHT22;32202;48.780;9.204;2022-07-05T08:34:43;47.80;28.30
46488;DHT22;32202;48.780;9.204;2022-07-05T08:37:08;48.00;28.10
46488;DHT22;32202;48.780;9.204;2022-07-05T08:39:35;47.80;28.00
46488;DHT22;32202;48.780;9.204;2022-07-05T08:42:01;47.90;28.00
46488;DHT22;32202;48.780;9.204;2022-07-05T08:44:29;48.30;28.00
46488;DHT22;32202;48.780;9.204;2022-07-05T08:46:56;49.10;27.80
46488;DHT22;32202;48.780;9.204;2022-07-05T08:49:24;49.50;27.60
46488;DHT22;32202;48.780;9.204;2022-07-05T08:51:50;49.80;27.50
46488;DHT22;32202;48.780;9.204;2022-07-05T08:54:16;50.20;27.30
46488;DHT22;32202;48.780;9.204;2022-07-05T08:56:43;50.20;26.90
46488;DHT22;32202;48.780;9.204;2022-07-05T08:59:08;49.90;27.00
46488;DHT22;32202;48.780;9.204;2022-07-05T09:01:34;49.80;27.10
46488;DHT22;32202;48.780;9.204;2022-07-05T09:04:04;50.10;27.20
46488;DHT22;32202;48.780;9.204;2022-07-05T09:06:31;50.60;26.90
46488;DHT22;32202;48.780;9.204;2022-07-05T09:08:59;50.60;26.80
46488;DHT22;32202;48.780;9.204;2022-07-05T09:11:31;50.50;26.70
46488;DHT22;32202;48.780;9.204;2022-07-05T09:14:01;50.40;26.40
46488;DHT22;32202;48.780;9.204;2022-07-05T09:16:28;50.20;26.60
46488;DHT22;32202;48.780;9.204;2022-07-05T09:18:54;50.00;26.60
46488;DHT22;32202;48.780;9.204;2022-07-05T09:21:20;50.30;26.60
46488;DHT22;32202;48.780;9.204;2022-07-05T09:24:09;50.40;26.70
46488;DHT22;32202;48.780;9.204;2022-07-05T09:29:10;50.60;26.50
46488;DHT22;32202;48.780;9.204;2022-07-05T09:31:42;51.10;26.30
46488;DHT22;32202;48.780;9.204;2022-07-05T09:34:09;51.20;26.10
46488;DHT22;32202;48.780;9.204;2022-07-05T09:36:50;51.50;26.20
46488;DHT22;32202;48.780;9.204;2022-07-05T09:39:16;51.80;26.20
46488;DHT22;32202;48.780;9.204;2022-07-05T09:41:42;51.60;26.20
46488;DHT22;32202;48.780;9.204;2022-07-05T09:44:08;51.80;26.20
46488;DHT22;32202;48.780;9.204;2022-07-05T09:46:34;52.50;26.10
46488;DHT22;32202;48.780;9.204;2022-07-05T09:49:00;52.80;25.90
46488;DHT22;32202;48.780;9.204;2022-07-05T09:51:26;52.30;26.20
46488;DHT22;32202;48.780;9.204;2022-07-05T09:53:54;52.00;25.70
46488;DHT22;32202;48.780;9.204;2022-07-05T09:56:20;52.30;25.70
46488;DHT22;32202;48.780;9.204;2022-07-05T09:58:46;51.70;25.70
46488;DHT22;32202;48.780;9.204;2022-07-05T10:01:29;52.40;25.70
46488;DHT22;32202;48.780;9.204;2022-07-05T10:03:58;53.00;25.80
46488;DHT22;32202;48.780;9.204;2022-07-05T10:06:26;53.20;25.80
46488;DHT22;32202;48.780;9.204;2022-07-05T10:08:53;53.10;25.70
46488;DHT22;32202;48.780;9.204;2022-07-05T10:11:20;53.00;25.50
46488;DHT22;32202;48.780;9.204;2022-07-05T10:13:48;53.10;25.40
46488;DHT22;32202;48.780;9.204;2022-07-05T10:16:16;53.60;25.10
46488;DHT22;32202;48.780;9.204;2022-07-05T10:18:44;53.70;25.10
46488;DHT22;32202;48.780;9.204;2022-07-05T10:21:14;53.00;25.10
46488;DHT22;32202;48.780;9.204;2022-07-05T10:23:44;53.20;25.30
46488;DHT22;32202;48.780;9.204;2022-07-05T10:26:13;53.60;25.20
46488;DHT22;32202;48.780;9.204;2022-07-05T10:28:40;53.20;25.20
46488;DHT22;32202;48.780;9.204;2022-07-05T10:31:07;53.60;25.10
46488;DHT22;32202;48.780;9.204;2022-07-05T10:33:36;54.40;25.00
46488;DHT22;32202;48.780;9.204;2022-07-05T10:36:03;54.50;24.70
46488;DHT22;32202;48.780;9.204;2022-07-05T10:38:29;53.90;24.70
46488;DHT22;32202;48.780;9.204;2022-07-05T10:40:58;53.50;24.60
46488;DHT22;32202;48.780;9.204;2022-07-05T10:43:24;53.20;24.40
46488;DHT22;32202;48.780;9.204;2022-07-05T10:45:51;53.50;25.00
46488;DHT22;32202;48.780;9.204;2022-07-05T10:48:43;53.90;24.60
46488;DHT22;32202;48.780;9.204;2022-07-05T11:03:47;53.60;25.00
46488;DHT22;32202;48.780;9.204;2022-07-05T11:06:26;53.30;25.10
46488;DHT22;32202;48.780;9.204;2022-07-05T11:11:37;54.10;25.10
46488;DHT22;32202;48.780;9.204;2022-07-05T11:17:17;53.20;24.90
46488;DHT22;32202;48.780;9.204;2022-07-05T11:20:07;52.80;24.80
46488;DHT22;32202;48.780;9.204;2022-07-05T11:23:01;52.90;24.60
46488;DHT22;32202;48.780;9.204;2022-07-05T11:25:33;53.50;24.90
46488;DHT22;32202;48.780;9.204;2022-07-05T11:28:00;53.30;24.90
46488;DHT22;32202;48.780;9.204;2022-07-05T11:30:27;52.40;25.20
46488;DHT22;32202;48.780;9.204;2022-07-05T11:32:52;52.60;25.10
46488;DHT22;32202;48.780;9.204;2022-07-05T11:35:19;51.50;25.20
46488;DHT22;32202;48.780;9.204;2022-07-05T11:38:06;51.40;25.30
46488;DHT22;32202;48.780;9.204;2022-07-05T11:40:36;51.10;25.30
46488;DHT22;32202;48.780;9.204;2022-07-05T11:43:03;51.80;25.30
46488;DHT22;32202;48.780;9.204;2022-07-05T11:45:30;51.90;24.80
46488;DHT22;32202;48.780;9.204;2022-07-05T11:47:56;51.60;25.00
46488;DHT22;32202;48.780;9.204;2022-07-05T11:50:33;51.50;25.20
46488;DHT22;32202;48.780;9.204;2022-07-05T11:53:00;51.10;25.20
46488;DHT22;32202;48.780;9.204;2022-07-05T11:55:28;49.70;25.50
46488;DHT22;32202;48.780;9.204;2022-07-05T11:57:55;48.90;25.90
46488;DHT22;32202;48.780;9.204;2022-07-05T12:02:55;47.70;25.90
46488;DHT22;32202;48.780;9.204;2022-07-05T12:05:21;47.80;26.10
46488;DHT22;32202;48.780;9.204;2022-07-05T12:07:51;47.00;26.10
46488;DHT22;32202;48.780;9.204;2022-07-05T12:10:17;47.10;26.20
46488;DHT22;32202;48.780;9.204;2022-07-05T12:13:08;47.80;26.10
46488;DHT22;32202;48.780;9.204;2022-07-05T12:15:35;47.90;26.10
46488;DHT22;32202;48.780;9.204;2022-07-05T12:18:03;48.00;26.00
46488;DHT22;32202;48.780;9.204;2022-07-05T12:20:33;47.50;26.20
46488;DHT22;32202;48.780;9.204;2022-07-05T12:22:59;46.90;26.20
46488;DHT22;32202;48.780;9.204;2022-07-05T12:25:27;46.30;26.50
46488;DHT22;32202;48.780;9.204;2022-07-05T12:27:54;45.60;26.70
46488;DHT22;32202;48.780;9.204;2022-07-05T12:30:20;45.50;26.90
46488;DHT22;32202;48.780;9.204;2022-07-05T12:32:57;45.20;26.80
46488;DHT22;32202;48.780;9.204;2022-07-05T12:35:32;45.00;26.90
46488;DHT22;32202;48.780;9.204;2022-07-05T12:40:35;44.00;27.40
46488;DHT22;32202;48.780;9.204;2022-07-05T12:43:02;43.30;27.70
46488;DHT22;32202;48.780;9.204;2022-07-05T12:45:28;42.50;28.00
46488;DHT22;32202;48.780;9.204;2022-07-05T12:47:56;41.40;28.30
46488;DHT22;32202;48.780;9.204;2022-07-05T12:50:22;40.60;28.80
46488;DHT22;32202;48.780;9.204;2022-07-05T12:53:05;39.70;29.20
46488;DHT22;32202;48.780;9.204;2022-07-05T12:55:51;38.70;29.70
46488;DHT22;32202;48.780;9.204;2022-07-05T12:58:53;37.90;30.00
46488;DHT22;32202;48.780;9.204;2022-07-05T13:01:29;37.30;30.40
46488;DHT22;32202;48.780;9.204;2022-07-05T13:04:08;36.80;30.90
46488;DHT22;32202;48.780;9.204;2022-07-05T13:09:06;35.80;31.70
46488;DHT22;32202;48.780;9.204;2022-07-05T13:11:31;35.30;32.00
46488;DHT22;32202;48.780;9.204;2022-07-05T13:13:57;34.90;31.80
46488;DHT22;32202;48.780;9.204;2022-07-05T13:16:23;34.50;32.20
46488;DHT22;32202;48.780;9.204;2022-07-05T13:18:48;34.20;32.60
46488;DHT22;32202;48.780;9.204;2022-07-05T13:21:14;34.00;32.90
46488;DHT22;32202;48.780;9.204;2022-07-05T13:23:39;34.00;33.10
46488;DHT22;32202;48.780;9.204;2022-07-05T13:26:05;34.00;33.00
46488;DHT22;32202;48.780;9.204;2022-07-05T13:28:32;34.00;32.90
46488;DHT22;32202;48.780;9.204;2022-07-05T13:30:57;33.90;33.10
46488;DHT22;32202;48.780;9.204;2022-07-05T13:33:23;33.90;33.30
46488;DHT22;32202;48.780;9.204;2022-07-05T13:35:48;33.90;33.20
46488;DHT22;32202;48.780;9.204;2022-07-05T13:38:14;34.00;33.20
46488;DHT22;32202;48.780;9.204;2022-07-05T13:40:39;33.70;33.20
46488;DHT22;32202;48.780;9.204;2022-07-05T13:43:05;33.60;33.40
46488;DHT22;32202;48.780;9.204;2022-07-05T13:45:31;33.60;33.60
46488;DHT22;32202;48.780;9.204;2022-07-05T13:47:57;33.60;33.50
46488;DHT22;32202;48.780;9.204;2022-07-05T13:50:23;33.50;33.20
46488;DHT22;32202;48.780;9.204;2022-07-05T13:53:01;33.40;33.50
46488;DHT22;32202;48.780;9.204;2022-07-05T13:55:27;33.30;33.60
46488;DHT22;32202;48.780;9.204;2022-07-05T13:57:53;33.20;33.40
46488;DHT22;32202;48.780;9.204;2022-07-05T14:00:19;33.00;33.70
46488;DHT22;32202;48.780;9.204;2022-07-05T14:02:44;32.60;33.70
46488;DHT22;32202;48.780;9.204;2022-07-05T14:05:10;32.40;34.30
46488;DHT22;32202;48.780;9.204;2022-07-05T14:07:36;32.30;34.60
46488;DHT22;32202;48.780;9.204;2022-07-05T14:10:03;32.30;34.30
46488;DHT22;32202;48.780;9.204;2022-07-05T14:12:29;32.30;34.50
46488;DHT22;32202;48.780;9.204;2022-07-05T14:14:55;32.30;34.50
46488;DHT22;32202;48.780;9.204;2022-07-05T14:17:20;32.30;34.50
46488;DHT22;32202;48.780;9.204;2022-07-05T14:19:46;32.30;34.40
46488;DHT22;32202;48.780;9.204;2022-07-05T14:22:11;32.20;34.50
46488;DHT22;32202;48.780;9.204;2022-07-05T14:24:37;32.10;34.80
46488;DHT22;32202;48.780;9.204;2022-07-05T14:27:03;32.10;34.80
46488;DHT22;32202;48.780;9.204;2022-07-05T14:29:32;32.00;34.50
46488;DHT22;32202;48.780;9.204;2022-07-05T14:31:58;31.80;34.90
46488;DHT22;32202;48.780;9.204;2022-07-05T14:34:24;31.80;35.00
46488;DHT22;32202;48.780;9.204;2022-07-05T14:36:49;31.70;34.90
46488;DHT22;32202;48.780;9.204;2022-07-05T14:39:15;31.70;34.90
46488;DHT22;32202;48.780;9.204;2022-07-05T14:41:41;31.80;34.70
46488;DHT22;32202;48.780;9.204;2022-07-05T14:44:08;31.80;34.90
46488;DHT22;32202;48.780;9.204;2022-07-05T14:46:34;31.90;34.60
46488;DHT22;32202;48.780;9.204;2022-07-05T14:48:59;31.80;34.40
46488;DHT22;32202;48.780;9.204;2022-07-05T14:51:25;31.80;34.60
46488;DHT22;32202;48.780;9.204;2022-07-05T14:53:51;31.80;34.60
46488;DHT22;32202;48.780;9.204;2022-07-05T14:56:16;31.80;35.20
46488;DHT22;32202;48.780;9.204;2022-07-05T14:58:42;31.70;34.60
46488;DHT22;32202;48.780;9.204;2022-07-05T15:01:09;31.60;34.70
46488;DHT22;32202;48.780;9.204;2022-07-05T15:03:34;31.40;34.80
46488;DHT22;32202;48.780;9.204;2022-07-05T15:06:00;31.20;34.90
46488;DHT22;32202;48.780;9.204;2022-07-05T15:08:28;31.20;35.60
46488;DHT22;32202;48.780;9.204;2022-07-05T15:10:54;31.40;35.10
46488;DHT22;32202;48.780;9.204;2022-07-05T15:13:20;31.40;34.60
46488;DHT22;32202;48.780;9.204;2022-07-05T15:15:45;31.40;35.00
46488;DHT22;32202;48.780;9.204;2022-07-05T15:18:11;31.30;35.00
46488;DHT22;32202;48.780;9.204;2022-07-05T15:20:36;31.20;34.80
46488;DHT22;32202;48.780;9.204;2022-07-05T15:23:02;31.10;35.10
46488;DHT22;32202;48.780;9.204;2022-07-05T15:25:28;30.90;35.30
46488;DHT22;32202;48.780;9.204;2022-07-05T15:27:53;30.80;35.40
46488;DHT22;32202;48.780;9.204;2022-07-05T15:30:19;30.70;35.50
46488;DHT22;32202;48.780;9.204;2022-07-05T15:32:48;30.60;35.70
46488;DHT22;32202;48.780;9.204;2022-07-05T15:35:14;30.60;35.80
46488;DHT22;32202;48.780;9.204;2022-07-05T15:37:41;30.60;35.60
46488;DHT22;32202;48.780;9.204;2022-07-05T15:40:07;30.40;35.60
46488;DHT22;32202;48.780;9.204;2022-07-05T15:42:33;30.40;35.90
46488;DHT22;32202;48.780;9.204;2022-07-05T15:44:59;30.30;35.80
46488;DHT22;32202;48.780;9.204;2022-07-05T15:47:24;30.30;35.70
46488;DHT22;32202;48.780;9.204;2022-07-05T15:49:52;30.30;35.90
46488;DHT22;32202;48.780;9.204;2022-07-05T15:52:17;30.20;35.70
46488;DHT22;32202;48.780;9.204;2022-07-05T15:54:43;30.20;35.90
46488;DHT22;32202;48.780;9.204;2022-07-05T15:57:09;30.10;35.80
46488;DHT22;32202;48.780;9.204;2022-07-05T15:59:34;30.10;36.20
46488;DHT22;32202;48.780;9.204;2022-07-05T16:02:00;30.10;36.20